Time;durP1;ratioP1;P1;durP2;ratioP2;P2;SDS_P1;SDS_P2;PMS_P1;PMS_P2;Temp;Humidity;BMP_temperature;BMP_pressure;BME280_temperature;BME280_humidity;BME280_pressure;Samples;Min_cycle;Max_cycle;Signal;HPM_P1;HPM_P2
2023/06/06 00:01:13;;;;;;;;;;;10.90;99.90;;;;;;5070765;28;19920;-60
2023/06/06 00:03:38;;;;;;;;;;;11.10;99.90;;;;;;5072473;28;20386;-60
2023/06/06 00:06:04;;;;;;;;;;;11.40;99.90;;;;;;5070861;28;20697;-60
2023/06/06 00:08:33;;;;;;;;;;;11.00;99.90;;;;;;5072252;28;19928;-60
2023/06/06 00:10:58;;;;;;;;;;;11.30;99.90;;;;;;5072036;28;19920;-60
2023/06/06 00:13:27;;;;;;;;;;;11.20;99.90;;;;;;5072105;28;20291;-60
2023/06/06 00:15:53;;;;;;;;;;;10.60;99.90;;;;;;5071757;28;19975;-60
2023/06/06 00:18:19;;;;;;;;;;;10.80;99.90;;;;;;5072000;28;19920;-60
2023/06/06 00:20:45;;;;;;;;;;;10.80;99.90;;;;;;5072257;28;20005;-60
2023/06/06 00:23:12;;;;;;;;;;;10.60;99.90;;;;;;5071886;28;19929;-60
2023/06/06 00:25:38;;;;;;;;;;;10.90;99.90;;;;;;5103969;28;19924;-60
2023/06/06 00:28:03;;;;;;;;;;;11.20;99.90;;;;;;5070651;28;19920;-60
2023/06/06 00:30:29;;;;;;;;;;;11.10;99.90;;;;;;5071958;28;20011;-60
2023/06/06 00:32:55;;;;;;;;;;;11.00;99.90;;;;;;5072098;28;19947;-60
2023/06/06 00:35:21;;;;;;;;;;;11.00;99.90;;;;;;5072164;28;19925;-60
2023/06/06 00:37:46;;;;;;;;;;;11.40;99.90;;;;;;5072009;28;19978;-60
2023/06/06 00:40:12;;;;;;;;;;;9.00;99.90;;;;;;5071956;28;19931;-60
2023/06/06 00:42:38;;;;;;;;;;;10.90;99.90;;;;;;5071968;28;19963;-61
2023/06/06 00:45:03;;;;;;;;;;;11.60;99.90;;;;;;5071929;28;20392;-61
2023/06/06 00:47:29;;;;;;;;;;;10.80;99.90;;;;;;5073326;28;19921;-60
2023/06/06 00:49:55;;;;;;;;;;;10.80;99.90;;;;;;5076067;28;19947;-60
2023/06/06 00:52:21;;;;;;;;;;;11.40;99.90;;;;;;5075915;28;20015;-60
2023/06/06 00:54:48;;;;;;;;;;;10.90;99.90;;;;;;5075828;28;20432;-60
2023/06/06 00:57:13;;;;;;;;;;;10.90;99.90;;;;;;5075723;28;19973;-61
2023/06/06 00:59:40;;;;;;;;;;;11.30;99.90;;;;;;5075670;28;20015;-60
2023/06/06 01:02:09;;;;;;;;;;;11.30;99.90;;;;;;5075618;28;20421;-60
2023/06/06 01:04:40;;;;;;;;;;;10.90;99.90;;;;;;5075719;28;19931;-60
2023/06/06 01:07:12;;;;;;;;;;;11.40;99.90;;;;;;5075378;28;20372;-61
2023/06/06 01:09:40;;;;;;;;;;;11.10;99.90;;;;;;5075473;28;19931;-60
2023/06/06 01:12:07;;;;;;;;;;;10.80;99.90;;;;;;5075340;28;19942;-61
2023/06/06 01:14:51;;;;;;;;;;;11.60;99.90;;;;;;5075358;28;20400;-60
2023/06/06 01:17:18;;;;;;;;;;;11.20;99.90;;;;;;5075378;28;19931;-60
2023/06/06 01:19:47;;;;;;;;;;;11.40;99.90;;;;;;5075332;28;19986;-60
2023/06/06 01:22:13;;;;;;;;;;;10.90;99.90;;;;;;5075234;28;19955;-61
2023/06/06 01:24:42;;;;;;;;;;;11.00;99.90;;;;;;5075064;28;19943;-61
2023/06/06 01:27:08;;;;;;;;;;;10.80;99.90;;;;;;5074724;28;19983;-60
2023/06/06 01:29:33;;;;;;;;;;;10.90;99.90;;;;;;5075404;28;19921;-61
2023/06/06 01:32:05;;;;;;;;;;;11.10;99.90;;;;;;5074705;28;20291;-61
2023/06/06 01:34:38;;;;;;;;;;;11.00;99.90;;;;;;5075164;28;19927;-60
2023/06/06 01:37:06;;;;;;;;;;;10.70;99.90;;;;;;5073582;28;19920;-60
2023/06/06 01:39:33;;;;;;;;;;;11.20;99.90;;;;;;5075098;28;19974;-60
2023/06/06 01:41:59;;;;;;;;;;;10.80;99.90;;;;;;5075002;28;19928;-60
2023/06/06 01:44:25;;;;;;;;;;;11.30;99.90;;;;;;5074948;28;19928;-61
2023/06/06 01:46:51;;;;;;;;;;;11.20;99.90;;;;;;5074609;28;19927;-61
2023/06/06 01:49:17;;;;;;;;;;;11.40;99.90;;;;;;5074778;28;19921;-60
2023/06/06 01:51:43;;;;;;;;;;;10.90;99.90;;;;;;5074635;28;19989;-61
2023/06/06 01:54:08;;;;;;;;;;;11.40;99.90;;;;;;5074590;28;19927;-60
2023/06/06 01:56:34;;;;;;;;;;;11.10;99.90;;;;;;5074757;28;20015;-60
2023/06/06 01:59:00;;;;;;;;;;;10.80;99.90;;;;;;5074187;28;19920;-61
2023/06/06 02:01:26;;;;;;;;;;;11.00;99.90;;;;;;5074589;28;19920;-60
2023/06/06 02:03:51;;;;;;;;;;;10.90;99.90;;;;;;5074467;28;19924;-60
2023/06/06 02:06:19;;;;;;;;;;;11.40;99.90;;;;;;5074290;28;19920;-60
2023/06/06 02:08:45;;;;;;;;;;;10.80;99.90;;;;;;5073407;28;19924;-60
2023/06/06 02:11:10;;;;;;;;;;;10.50;99.90;;;;;;5074444;28;19920;-60
2023/06/06 02:13:36;;;;;;;;;;;11.00;99.90;;;;;;5074363;28;19920;-60
2023/06/06 02:16:02;;;;;;;;;;;10.90;99.90;;;;;;5074335;28;19979;-60
2023/06/06 02:18:28;;;;;;;;;;;10.60;99.90;;;;;;5074330;28;20007;-60
2023/06/06 02:20:53;;;;;;;;;;;11.40;99.90;;;;;;5074146;28;20406;-60
2023/06/06 02:23:19;;;;;;;;;;;10.70;99.90;;;;;;5074075;28;19920;-60
2023/06/06 02:25:45;;;;;;;;;;;11.10;99.90;;;;;;5073893;28;20007;-60
2023/06/06 02:28:11;;;;;;;;;;;11.00;99.90;;;;;;5074238;28;19958;-60
2023/06/06 02:30:36;;;;;;;;;;;10.60;99.90;;;;;;5074156;28;19927;-60
2023/06/06 02:33:02;;;;;;;;;;;11.00;99.90;;;;;;5073992;28;19920;-60
2023/06/06 02:35:28;;;;;;;;;;;11.40;99.90;;;;;;5073865;28;20375;-60
2023/06/06 02:37:54;;;;;;;;;;;10.90;99.90;;;;;;5074072;28;20018;-61
2023/06/06 02:40:19;;;;;;;;;;;11.30;99.90;;;;;;5073010;28;20425;-61
2023/06/06 02:42:45;;;;;;;;;;;10.80;99.90;;;;;;5074151;28;19924;-60
2023/06/06 02:45:11;;;;;;;;;;;11.40;99.90;;;;;;5073797;28;19924;-60
2023/06/06 02:47:37;;;;;;;;;;;11.80;99.90;;;;;;5073558;28;19927;-61
2023/06/06 02:50:03;;;;;;;;;;;11.00;99.90;;;;;;5073513;28;19920;-60
2023/06/06 02:52:31;;;;;;;;;;;10.60;99.90;;;;;;5073466;28;20380;-60
2023/06/06 02:54:57;;;;;;;;;;;11.40;99.90;;;;;;5073626;28;20376;-60
2023/06/06 02:57:23;;;;;;;;;;;10.90;99.90;;;;;;5073547;28;20007;-60
2023/06/06 02:59:48;;;;;;;;;;;11.10;99.90;;;;;;5071948;28;19931;-60
2023/06/06 03:02:18;;;;;;;;;;;11.60;99.90;;;;;;5073328;28;19928;-60
2023/06/06 03:04:44;;;;;;;;;;;11.60;99.90;;;;;;5071990;28;20020;-61
2023/06/06 03:07:10;;;;;;;;;;;11.70;99.90;;;;;;5073339;28;19924;-60
2023/06/06 03:09:36;;;;;;;;;;;10.90;99.90;;;;;;5072753;28;20284;-60
2023/06/06 03:12:02;;;;;;;;;;;11.60;99.90;;;;;;5073034;28;20296;-61
2023/06/06 03:14:27;;;;;;;;;;;11.20;99.90;;;;;;5073103;28;19924;-60
2023/06/06 03:16:55;;;;;;;;;;;11.40;99.90;;;;;;5073100;28;19920;-60
2023/06/06 03:19:21;;;;;;;;;;;11.00;99.90;;;;;;5072954;28;19982;-60
2023/06/06 03:21:46;;;;;;;;;;;11.10;99.90;;;;;;5072853;28;19975;-60
2023/06/06 03:24:13;;;;;;;;;;;11.20;99.90;;;;;;5073051;28;19974;-60
2023/06/06 03:26:39;;;;;;;;;;;10.80;99.90;;;;;;5072761;28;20033;-60
2023/06/06 03:29:05;;;;;;;;;;;11.30;99.90;;;;;;5072848;28;19925;-59
2023/06/06 03:31:31;;;;;;;;;;;10.70;99.90;;;;;;5072727;28;19931;-60
2023/06/06 03:33:57;;;;;;;;;;;11.00;99.90;;;;;;5072684;28;20019;-60
2023/06/06 03:36:22;;;;;;;;;;;10.60;99.90;;;;;;5072853;28;20014;-60
2023/06/06 03:38:48;;;;;;;;;;;11.10;99.90;;;;;;5072754;28;19974;-60
2023/06/06 03:41:14;;;;;;;;;;;10.90;99.90;;;;;;5072686;28;19924;-60
2023/06/06 03:43:41;;;;;;;;;;;10.90;99.90;;;;;;5072598;28;20368;-60
2023/06/06 03:46:06;;;;;;;;;;;11.40;99.90;;;;;;5072455;28;19975;-59
2023/06/06 03:48:32;;;;;;;;;;;11.20;99.90;;;;;;5072450;28;19959;-61
2023/06/06 03:50:57;;;;;;;;;;;11.40;99.90;;;;;;5072617;28;19924;-61
2023/06/06 03:53:23;;;;;;;;;;;11.30;99.90;;;;;;5072804;28;20015;-60
2023/06/06 03:55:48;;;;;;;;;;;11.50;99.90;;;;;;5071245;28;20577;-60
2023/06/06 03:58:14;;;;;;;;;;;11.50;99.90;;;;;;5104889;28;19928;-59
2023/06/06 04:00:40;;;;;;;;;;;11.00;99.90;;;;;;5072420;28;19920;-61
2023/06/06 04:03:05;;;;;;;;;;;11.10;99.90;;;;;;5072187;28;19920;-60
2023/06/06 04:05:32;;;;;;;;;;;11.20;99.90;;;;;;5071353;28;19920;-60
2023/06/06 04:07:59;;;;;;;;;;;11.20;99.90;;;;;;5072343;28;19990;-60
2023/06/06 04:10:24;;;;;;;;;;;11.80;99.90;;;;;;5072307;28;19970;-61
2023/06/06 04:12:51;;;;;;;;;;;11.10;99.90;;;;;;5072282;28;19920;-60
2023/06/06 04:15:16;;;;;;;;;;;11.50;99.90;;;;;;5072248;28;20326;-60
2023/06/06 04:17:42;;;;;;;;;;;11.70;99.90;;;;;;5071084;28;19927;-60
2023/06/06 04:20:08;;;;;;;;;;;11.50;99.90;;;;;;5071011;28;19930;-60
2023/06/06 04:22:34;;;;;;;;;;;12.10;99.90;;;;;;5072069;28;19920;-60
2023/06/06 04:25:00;;;;;;;;;;;11.90;99.90;;;;;;5072117;28;19924;-60
2023/06/06 04:27:26;;;;;;;;;;;11.70;99.90;;;;;;5071691;28;20379;-60
2023/06/06 04:29:51;;;;;;;;;;;11.60;99.90;;;;;;5070773;28;19920;-60
2023/06/06 04:32:19;;;;;;;;;;;11.00;99.90;;;;;;5072014;28;19928;-60
2023/06/06 04:34:45;;;;;;;;;;;11.50;99.90;;;;;;5072489;28;20793;-60
2023/06/06 04:37:13;;;;;;;;;;;11.40;99.90;;;;;;5072335;28;20016;-61
2023/06/06 04:39:40;;;;;;;;;;;11.40;99.90;;;;;;5071132;28;19921;-60
2023/06/06 04:42:06;;;;;;;;;;;11.30;99.90;;;;;;5071969;28;19928;-60
2023/06/06 04:44:32;;;;;;;;;;;11.10;99.90;;;;;;5071933;28;20324;-60
2023/06/06 04:47:03;;;;;;;;;;;11.00;99.90;;;;;;5071718;28;19927;-60
2023/06/06 04:49:30;;;;;;;;;;;11.90;99.90;;;;;;5071963;28;19921;-61
2023/06/06 04:51:59;;;;;;;;;;;11.60;99.90;;;;;;5071980;28;19931;-60
2023/06/06 04:54:25;;;;;;;;;;;12.00;99.90;;;;;;5071928;28;19924;-61
2023/06/06 04:56:53;;;;;;;;;;;12.10;99.90;;;;;;5071804;28;19950;-60
2023/06/06 04:59:22;;;;;;;;;;;11.90;99.90;;;;;;5071714;28;19920;-60
2023/06/06 05:01:48;;;;;;;;;;;12.00;99.90;;;;;;5071867;28;19931;-60
2023/06/06 05:04:13;;;;;;;;;;;12.10;99.90;;;;;;5071879;28;20326;-60
2023/06/06 05:06:40;;;;;;;;;;;12.40;99.90;;;;;;5071646;28;19927;-61
2023/06/06 05:09:07;;;;;;;;;;;12.10;99.90;;;;;;5071714;28;20348;-61
2023/06/06 05:11:36;;;;;;;;;;;12.10;99.90;;;;;;5071592;28;19920;-60
2023/06/06 05:14:02;;;;;;;;;;;12.60;99.90;;;;;;5070208;28;19920;-61
2023/06/06 05:16:27;;;;;;;;;;;12.50;99.90;;;;;;5071714;28;20368;-61
2023/06/06 05:18:53;;;;;;;;;;;12.40;99.90;;;;;;5071654;28;19996;-61
2023/06/06 05:21:19;;;;;;;;;;;12.10;99.90;;;;;;5071650;28;19920;-63
2023/06/06 05:23:45;;;;;;;;;;;12.30;99.90;;;;;;5071541;28;19969;-62
2023/06/06 05:26:10;;;;;;;;;;;12.50;99.90;;;;;;5071145;28;19930;-62
2023/06/06 05:28:37;;;;;;;;;;;11.90;99.90;;;;;;5071360;28;19920;-62
2023/06/06 05:31:02;;;;;;;;;;;11.80;99.90;;;;;;5071545;28;19921;-61
2023/06/06 05:33:30;;;;;;;;;;;12.30;99.90;;;;;;5072538;28;19924;-61
2023/06/06 05:35:56;;;;;;;;;;;12.40;99.90;;;;;;5074030;28;19924;-61
2023/06/06 05:38:22;;;;;;;;;;;12.30;99.90;;;;;;5075037;28;20393;-62
2023/06/06 05:40:47;;;;;;;;;;;12.30;99.90;;;;;;5074981;28;20365;-61
2023/06/06 05:43:13;;;;;;;;;;;12.50;99.90;;;;;;5074863;28;19927;-61
2023/06/06 05:45:39;;;;;;;;;;;12.50;99.90;;;;;;5074980;28;19947;-61
2023/06/06 05:48:05;;;;;;;;;;;13.30;99.90;;;;;;5077257;28;20015;-62
2023/06/06 05:50:30;;;;;;;;;;;13.00;99.90;;;;;;5093008;28;19924;-61
2023/06/06 05:52:56;;;;;;;;;;;13.20;99.90;;;;;;5094359;28;19977;-61
2023/06/06 05:55:32;;;;;;;;;;;13.30;99.90;;;;;;5093802;28;20018;-62
2023/06/06 05:57:58;;;;;;;;;;;13.40;99.90;;;;;;5094157;28;20006;-61
2023/06/06 06:00:24;;;;;;;;;;;13.30;99.90;;;;;;5094366;28;19928;-62
2023/06/06 06:02:53;;;;;;;;;;;13.60;99.90;;;;;;5093315;28;20418;-62
2023/06/06 06:05:19;;;;;;;;;;;13.80;99.90;;;;;;5094199;28;20307;-62
2023/06/06 06:07:47;;;;;;;;;;;13.70;99.90;;;;;;5093945;28;19930;-62
2023/06/06 06:10:13;;;;;;;;;;;13.60;99.90;;;;;;5093589;28;19966;-61
2023/06/06 06:12:40;;;;;;;;;;;13.40;99.90;;;;;;5097688;28;20412;-62
2023/06/06 06:15:06;;;;;;;;;;;13.50;99.90;;;;;;5094193;28;19931;-63
2023/06/06 06:17:32;;;;;;;;;;;13.80;99.90;;;;;;5093116;28;20287;-61
2023/06/06 06:20:00;;;;;;;;;;;13.40;99.90;;;;;;5093944;28;19920;-62
2023/06/06 06:22:25;;;;;;;;;;;13.50;99.90;;;;;;5093813;28;20014;-62
2023/06/06 06:24:51;;;;;;;;;;;13.90;99.90;;;;;;5093190;28;20010;-61
2023/06/06 06:27:17;;;;;;;;;;;14.10;99.90;;;;;;5093752;28;19920;-62
2023/06/06 06:29:43;;;;;;;;;;;14.70;99.90;;;;;;5094101;28;19945;-61
2023/06/06 06:32:08;;;;;;;;;;;14.00;99.90;;;;;;5093185;28;19923;-61
2023/06/06 06:34:34;;;;;;;;;;;14.00;99.90;;;;;;5092636;28;20712;-61
2023/06/06 06:37:01;;;;;;;;;;;14.20;99.90;;;;;;5093620;28;19973;-62
2023/06/06 06:39:26;;;;;;;;;;;14.50;99.90;;;;;;5092865;28;19931;-62
2023/06/06 06:41:52;;;;;;;;;;;14.40;99.90;;;;;;5093421;28;19924;-62
2023/06/06 06:44:18;;;;;;;;;;;13.90;99.90;;;;;;5093467;28;19927;-63
2023/06/06 06:46:44;;;;;;;;;;;14.30;99.90;;;;;;5091484;28;19924;-62
2023/06/06 06:49:14;;;;;;;;;;;13.60;99.90;;;;;;5092896;28;19924;-61
2023/06/06 06:51:40;;;;;;;;;;;13.90;99.90;;;;;;5093398;28;19920;-61
2023/06/06 06:54:05;;;;;;;;;;;14.20;99.90;;;;;;5091492;28;19943;-61
2023/06/06 06:56:31;;;;;;;;;;;14.10;99.90;;;;;;5093064;28;19969;-61
2023/06/06 06:58:57;;;;;;;;;;;13.80;99.90;;;;;;5093155;28;19924;-61
2023/06/06 07:01:27;;;;;;;;;;;13.90;99.90;;;;;;5092974;28;19924;-62
2023/06/06 07:03:53;;;;;;;;;;;13.90;99.90;;;;;;5092594;28;20384;-63
2023/06/06 07:06:20;;;;;;;;;;;13.50;99.90;;;;;;5093021;28;19930;-61
2023/06/06 07:08:46;;;;;;;;;;;14.10;99.90;;;;;;5092378;28;20308;-61
2023/06/06 07:11:11;;;;;;;;;;;14.30;99.90;;;;;;5093006;28;19934;-61
2023/06/06 07:13:37;;;;;;;;;;;14.60;99.90;;;;;;5092865;28;19924;-61
2023/06/06 07:16:02;;;;;;;;;;;14.80;99.90;;;;;;5092911;28;19920;-61
2023/06/06 07:18:28;;;;;;;;;;;14.60;99.90;;;;;;5092013;28;19976;-61
2023/06/06 07:20:54;;;;;;;;;;;14.50;99.90;;;;;;5092766;28;20387;-61
2023/06/06 07:23:19;;;;;;;;;;;14.90;99.90;;;;;;5092421;28;20015;-61
2023/06/06 07:25:45;;;;;;;;;;;15.00;99.90;;;;;;5090048;28;19967;-61
2023/06/06 07:28:13;;;;;;;;;;;14.90;99.90;;;;;;5091041;28;19931;-62
2023/06/06 07:30:39;;;;;;;;;;;14.90;99.90;;;;;;5091127;28;19920;-60
2023/06/06 07:33:05;;;;;;;;;;;14.50;99.90;;;;;;5091327;28;19979;-61
2023/06/06 07:35:32;;;;;;;;;;;14.90;99.90;;;;;;5091101;28;20375;-60
2023/06/06 07:37:59;;;;;;;;;;;14.80;99.90;;;;;;5090588;28;19924;-60
2023/06/06 07:40:25;;;;;;;;;;;15.00;99.90;;;;;;5090732;28;19924;-61
2023/06/06 07:42:51;;;;;;;;;;;15.20;99.90;;;;;;5091017;28;19931;-60
2023/06/06 07:45:17;;;;;;;;;;;14.90;99.90;;;;;;5091896;28;19924;-59
2023/06/06 07:47:43;;;;;;;;;;;15.10;99.90;;;;;;5090736;28;19920;-59
2023/06/06 07:50:09;;;;;;;;;;;15.10;99.90;;;;;;5090688;28;19985;-61
2023/06/06 07:52:38;;;;;;;;;;;15.30;99.90;;;;;;5091433;28;19928;-60
2023/06/06 07:55:05;;;;;;;;;;;15.70;99.90;;;;;;5089998;28;20007;-60
2023/06/06 07:57:33;;;;;;;;;;;15.20;99.90;;;;;;5090374;28;19930;-60
2023/06/06 07:59:59;;;;;;;;;;;15.70;99.90;;;;;;5091533;28;20406;-61
2023/06/06 08:02:25;;;;;;;;;;;15.20;99.90;;;;;;5090027;28;19930;-61
2023/06/06 08:04:52;;;;;;;;;;;15.60;99.90;;;;;;5090443;28;20010;-61
2023/06/06 08:07:18;;;;;;;;;;;15.10;99.90;;;;;;5091270;28;19920;-61
2023/06/06 08:09:45;;;;;;;;;;;14.70;99.90;;;;;;5089760;28;19924;-61
2023/06/06 08:12:11;;;;;;;;;;;14.70;99.90;;;;;;5090647;28;20338;-61
2023/06/06 08:14:38;;;;;;;;;;;14.80;99.90;;;;;;5090100;28;20470;-62
2023/06/06 08:17:04;;;;;;;;;;;14.70;99.90;;;;;;5090016;28;19920;-60
2023/06/06 08:19:30;;;;;;;;;;;14.70;99.90;;;;;;5090279;28;20368;-61
2023/06/06 08:21:56;;;;;;;;;;;15.10;99.90;;;;;;5090303;28;19965;-61
2023/06/06 08:24:22;;;;;;;;;;;15.20;99.90;;;;;;5090034;28;19973;-62
2023/06/06 08:26:48;;;;;;;;;;;15.30;99.90;;;;;;5072948;28;20006;-64
2023/06/06 08:29:14;;;;;;;;;;;15.50;99.90;;;;;;5089903;28;20076;-63
2023/06/06 08:31:41;;;;;;;;;;;15.40;99.90;;;;;;5089346;28;19945;-62
2023/06/06 08:34:07;;;;;;;;;;;15.60;99.90;;;;;;5090985;28;19927;-63
2023/06/06 08:36:32;;;;;;;;;;;15.10;99.90;;;;;;5090904;28;19924;-62
2023/06/06 08:38:58;;;;;;;;;;;15.30;99.90;;;;;;5090605;28;19924;-62
2023/06/06 08:41:25;;;;;;;;;;;15.20;99.90;;;;;;5090340;28;19924;-62
2023/06/06 08:43:52;;;;;;;;;;;15.10;99.90;;;;;;5090243;28;19920;-62
2023/06/06 08:46:18;;;;;;;;;;;15.30;99.90;;;;;;5089633;28;19924;-63
2023/06/06 08:48:45;;;;;;;;;;;15.20;99.90;;;;;;5090987;28;19951;-62
2023/06/06 08:51:12;;;;;;;;;;;15.30;99.90;;;;;;5090559;28;20030;-63
2023/06/06 08:53:38;;;;;;;;;;;15.20;99.90;;;;;;5090557;28;19926;-64
2023/06/06 08:56:04;;;;;;;;;;;15.70;99.90;;;;;;5090553;28;19924;-63
2023/06/06 08:58:29;;;;;;;;;;;15.80;99.90;;;;;;5091243;28;19977;-64
2023/06/06 09:00:59;;;;;;;;;;;16.20;99.90;;;;;;5089229;28;19928;-63
2023/06/06 09:03:27;;;;;;;;;;;16.20;99.90;;;;;;5090551;28;19930;-63
2023/06/06 09:05:53;;;;;;;;;;;18.80;99.90;;;;;;5091082;28;20018;-63
2023/06/06 09:08:19;;;;;;;;;;;16.40;99.90;;;;;;5091336;28;19924;-64
2023/06/06 09:10:45;;;;;;;;;;;16.20;99.90;;;;;;5094656;28;19930;-63
2023/06/06 09:13:11;;;;;;;;;;;16.50;99.90;;;;;;5093949;28;20299;-62
2023/06/06 09:15:36;;;;;;;;;;;16.20;99.90;;;;;;5094801;28;19920;-63
2023/06/06 09:18:02;;;;;;;;;;;16.50;99.90;;;;;;5095109;28;19977;-62
2023/06/06 09:20:28;;;;;;;;;;;16.20;99.90;;;;;;5095574;28;20664;-62
2023/06/06 09:22:57;;;;;;;;;;;15.80;99.90;;;;;;5095293;28;20011;-63
2023/06/06 09:25:23;;;;;;;;;;;16.30;99.90;;;;;;5094745;28;19989;-64
2023/06/06 09:27:56;;;;;;;;;;;16.00;99.90;;;;;;5095006;28;19924;-63
2023/06/06 09:30:26;;;;;;;;;;;15.30;99.90;;;;;;5095093;28;19924;-62
2023/06/06 09:32:58;;;;;;;;;;;15.90;99.90;;;;;;5094828;28;20474;-63
2023/06/06 09:35:33;;;;;;;;;;;15.80;99.90;;;;;;5094783;28;20015;-64
2023/06/06 09:38:07;;;;;;;;;;;15.80;99.90;;;;;;5115625;28;19924;-63
2023/06/06 09:40:33;;;;;;;;;;;16.10;99.90;;;;;;5115521;28;19964;-63
2023/06/06 09:42:59;;;;;;;;;;;16.00;99.90;;;;;;5115429;27;19923;-63
2023/06/06 09:45:25;;;;;;;;;;;16.50;99.90;;;;;;5115217;28;19934;-63
2023/06/06 09:47:50;;;;;;;;;;;15.80;99.90;;;;;;5115458;28;19923;-62
2023/06/06 09:50:17;;;;;;;;;;;16.20;99.90;;;;;;5115334;28;19953;-63
2023/06/06 09:52:43;;;;;;;;;;;16.10;99.90;;;;;;5115332;28;20068;-62
2023/06/06 09:55:09;;;;;;;;;;;16.10;99.90;;;;;;5115065;28;19988;-63
2023/06/06 09:57:36;;;;;;;;;;;15.70;99.90;;;;;;5115246;28;19923;-63
2023/06/06 10:00:15;;;;;;;;;;;15.90;99.90;;;;;;5107942;28;20372;-62
2023/06/06 10:02:45;;;;;;;;;;;15.80;99.90;;;;;;5091643;28;19919;-61
2023/06/06 10:05:12;;;;;;;;;;;16.40;99.90;;;;;;5091976;28;20368;-64
2023/06/06 10:07:38;;;;;;;;;;;16.20;99.90;;;;;;5093757;28;19953;-62
2023/06/06 10:10:05;;;;;;;;;;;16.90;99.90;;;;;;5094312;28;19930;-62
2023/06/06 10:12:31;;;;;;;;;;;17.50;99.90;;;;;;5094203;28;19966;-62
2023/06/06 10:14:57;;;;;;;;;;;16.60;99.90;;;;;;5092952;28;19920;-63
2023/06/06 10:17:25;;;;;;;;;;;16.50;99.90;;;;;;5094402;28;19927;-63
2023/06/06 10:19:55;;;;;;;;;;;16.50;99.90;;;;;;5093482;28;19920;-62
2023/06/06 10:22:21;;;;;;;;;;;16.40;99.90;;;;;;5092918;28;19965;-63
2023/06/06 10:24:47;;;;;;;;;;;16.50;99.90;;;;;;5093596;28;19924;-66
2023/06/06 10:27:18;;;;;;;;;;;16.40;99.90;;;;;;5093806;28;20356;-63
2023/06/06 10:29:49;;;;;;;;;;;16.10;99.90;;;;;;5092561;28;19920;-61
2023/06/06 10:32:17;;;;;;;;;;;16.50;99.90;;;;;;5094167;28;20035;-61
2023/06/06 10:34:45;;;;;;;;;;;16.60;99.90;;;;;;5092682;28;19924;-66
2023/06/06 10:37:18;;;;;;;;;;;17.00;99.90;;;;;;5072285;28;19937;-62
2023/06/06 10:39:47;;;;;;;;;;;17.10;99.90;;;;;;5079419;28;19955;-63
2023/06/06 10:42:13;;;;;;;;;;;17.00;99.90;;;;;;5093908;28;19924;-63
2023/06/06 10:44:45;;;;;;;;;;;17.00;99.90;;;;;;5081808;28;19931;-63
2023/06/06 10:47:19;;;;;;;;;;;17.30;99.90;;;;;;5073234;28;20494;-63
2023/06/06 10:50:04;;;;;;;;;;;17.70;99.90;;;;;;5071662;28;19928;-66
2023/06/06 10:52:29;;;;;;;;;;;17.80;99.90;;;;;;5073046;28;20419;-65
2023/06/06 10:54:58;;;;;;;;;;;17.30;99.90;;;;;;5073476;28;19963;-64
2023/06/06 10:57:23;;;;;;;;;;;17.00;99.90;;;;;;5072106;28;19926;-65
2023/06/06 10:59:52;;;;;;;;;;;16.70;99.90;;;;;;5073505;28;20027;-65
2023/06/06 11:02:36;;;;;;;;;;;17.20;99.90;;;;;;5072791;28;19926;-64
2023/06/06 11:05:03;;;;;;;;;;;16.90;99.90;;;;;;5072959;28;20273;-64
2023/06/06 11:07:28;;;;;;;;;;;17.10;99.90;;;;;;5073021;28;19927;-65
2023/06/06 11:09:54;;;;;;;;;;;17.50;99.90;;;;;;5073746;28;19920;-64
2023/06/06 11:12:20;;;;;;;;;;;17.40;99.90;;;;;;5114017;28;19923;-64
2023/06/06 11:15:03;;;;;;;;;;;17.10;99.90;;;;;;5113709;28;19920;-63
2023/06/06 11:17:42;;;;;;;;;;;17.50;99.90;;;;;;5114052;28;19962;-64
2023/06/06 11:20:15;;;;;;;;;;;17.20;99.90;;;;;;5113578;28;19923;-65
2023/06/06 11:22:48;;;;;;;;;;;17.40;99.90;;;;;;5096792;28;19920;-64
2023/06/06 11:25:15;;;;;;;;;;;16.80;99.90;;;;;;5092624;28;19920;-64
2023/06/06 11:27:41;;;;;;;;;;;17.60;99.90;;;;;;5092639;28;20364;-64
2023/06/06 11:30:08;;;;;;;;;;;17.50;99.90;;;;;;5093019;28;19920;-64
2023/06/06 11:32:33;;;;;;;;;;;17.10;99.90;;;;;;5091259;28;20120;-64
2023/06/06 11:35:04;;;;;;;;;;;17.60;99.90;;;;;;5093017;28;20014;-63
2023/06/06 11:37:29;;;;;;;;;;;17.20;99.90;;;;;;5092729;28;20333;-64
2023/06/06 11:39:55;;;;;;;;;;;17.20;99.90;;;;;;5092491;28;19927;-64
2023/06/06 11:42:21;;;;;;;;;;;17.10;99.90;;;;;;5092922;28;19924;-63
2023/06/06 11:44:46;;;;;;;;;;;17.40;99.90;;;;;;5092691;28;19920;-62
2023/06/06 11:47:12;;;;;;;;;;;17.10;99.90;;;;;;5090859;28;20284;-67
2023/06/06 11:49:44;;;;;;;;;;;17.00;99.90;;;;;;5092362;28;19920;-65
2023/06/06 11:52:10;;;;;;;;;;;17.30;99.90;;;;;;5092320;28;20010;-67
2023/06/06 11:54:36;;;;;;;;;;;17.10;99.90;;;;;;5092061;28;20046;-65
2023/06/06 11:57:03;;;;;;;;;;;17.50;99.90;;;;;;5091631;28;19928;-66
2023/06/06 11:59:29;;;;;;;;;;;17.20;99.90;;;;;;5092450;28;19920;-64
2023/06/06 12:01:58;;;;;;;;;;;17.40;99.90;;;;;;5092472;28;19973;-64
2023/06/06 12:04:24;;;;;;;;;;;17.30;99.90;;;;;;5092611;28;20383;-65
2023/06/06 12:06:51;;;;;;;;;;;17.40;99.90;;;;;;5091982;28;20261;-63
2023/06/06 12:09:18;;;;;;;;;;;17.10;99.90;;;;;;5092643;28;20256;-65
2023/06/06 12:11:51;;;;;;;;;;;17.20;99.90;;;;;;5092082;28;20731;-64
2023/06/06 12:14:17;;;;;;;;;;;17.50;99.90;;;;;;5109508;28;19945;-64
2023/06/06 12:16:42;;;;;;;;;;;17.40;99.90;;;;;;5112484;28;19920;-64
2023/06/06 12:19:14;;;;;;;;;;;17.40;99.90;;;;;;5112440;28;19927;-64
2023/06/06 12:21:43;;;;;;;;;;;17.60;99.90;;;;;;5111998;28;19920;-66
2023/06/06 12:24:19;;;;;;;;;;;17.50;99.90;;;;;;5112455;28;19923;-65
2023/06/06 12:27:02;;;;;;;;;;;17.70;99.90;;;;;;5112169;28;19934;-64
2023/06/06 12:29:30;;;;;;;;;;;16.80;99.90;;;;;;5112563;28;20018;-64
2023/06/06 12:32:14;;;;;;;;;;;17.60;99.90;;;;;;5112435;28;19928;-64
2023/06/06 12:34:43;;;;;;;;;;;17.20;99.90;;;;;;5112494;28;19920;-65
2023/06/06 12:37:10;;;;;;;;;;;17.40;99.90;;;;;;5111503;28;20368;-63
2023/06/06 12:39:40;;;;;;;;;;;17.60;99.90;;;;;;5112188;28;19923;-65
2023/06/06 12:42:19;;;;;;;;;;;17.70;99.90;;;;;;5112521;28;19930;-65
2023/06/06 12:44:45;;;;;;;;;;;18.00;99.90;;;;;;5116136;28;19941;-65
2023/06/06 12:47:11;;;;;;;;;;;18.10;99.90;;;;;;5115991;28;20372;-62
2023/06/06 12:49:38;;;;;;;;;;;17.90;99.90;;;;;;5116047;27;19978;-62
2023/06/06 12:52:04;;;;;;;;;;;17.80;99.90;;;;;;5115844;28;19920;-64
2023/06/06 12:54:30;;;;;;;;;;;18.10;99.90;;;;;;5115664;28;19919;-63
2023/06/06 12:56:56;;;;;;;;;;;18.10;99.90;;;;;;5111484;27;19927;-65
2023/06/06 12:59:26;;;;;;;;;;;18.00;99.90;;;;;;5095080;28;20330;-64
2023/06/06 13:01:52;;;;;;;;;;;18.00;99.90;;;;;;5095599;28;19939;-64
2023/06/06 13:04:18;;;;;;;;;;;17.90;99.90;;;;;;5094095;28;20018;-63
2023/06/06 13:06:44;;;;;;;;;;;17.90;99.90;;;;;;5094564;28;20019;-65
2023/06/06 13:09:11;;;;;;;;;;;17.80;99.90;;;;;;5090680;28;19928;-63
2023/06/06 13:11:37;;;;;;;;;;;18.20;99.90;;;;;;5092715;28;20335;-63
2023/06/06 13:14:02;;;;;;;;;;;17.70;99.90;;;;;;5094630;28;19955;-63
2023/06/06 13:16:28;;;;;;;;;;;17.60;99.90;;;;;;5092907;28;20002;-63
2023/06/06 13:18:54;;;;;;;;;;;18.10;99.90;;;;;;5094650;28;20002;-63
2023/06/06 13:21:19;;;;;;;;;;;18.10;99.90;;;;;;5094116;28;20352;-63
2023/06/06 13:23:45;;;;;;;;;;;18.10;99.90;;;;;;5093956;28;19935;-63
2023/06/06 13:26:12;;;;;;;;;;;18.70;99.90;;;;;;5082570;28;19960;-63
2023/06/06 13:28:37;;;;;;;;;;;20.10;99.90;;;;;;5114627;28;20089;-63
2023/06/06 13:31:03;;;;;;;;;;;18.50;99.90;;;;;;5093910;28;20057;-62
2023/06/06 13:33:29;;;;;;;;;;;18.40;99.90;;;;;;5094143;28;19931;-64
2023/06/06 13:35:55;;;;;;;;;;;18.30;99.90;;;;;;5094179;28;19924;-63
2023/06/06 13:38:22;;;;;;;;;;;18.50;99.90;;;;;;5094059;28;19998;-66
2023/06/06 13:40:49;;;;;;;;;;;18.60;99.90;;;;;;5093200;28;19923;-65
2023/06/06 13:43:15;;;;;;;;;;;18.00;99.90;;;;;;5094411;28;20014;-65
2023/06/06 13:45:40;;;;;;;;;;;18.00;99.90;;;;;;5106263;28;19998;-64
2023/06/06 13:48:06;;;;;;;;;;;17.90;99.90;;;;;;5114235;28;20148;-65
2023/06/06 13:50:32;;;;;;;;;;;17.80;99.90;;;;;;5100688;28;19924;-65
2023/06/06 13:52:57;;;;;;;;;;;18.00;99.90;;;;;;5093576;28;20458;-65
2023/06/06 13:55:23;;;;;;;;;;;18.10;99.90;;;;;;5093881;28;19920;-65
2023/06/06 13:57:53;;;;;;;;;;;17.70;99.90;;;;;;5094458;28;20360;-65
2023/06/06 14:00:19;;;;;;;;;;;18.30;99.90;;;;;;5089055;28;19920;-66
2023/06/06 14:02:45;;;;;;;;;;;18.10;99.90;;;;;;5093140;28;19962;-64
2023/06/06 14:05:11;;;;;;;;;;;17.80;99.90;;;;;;5093089;28;20022;-64
2023/06/06 14:07:36;;;;;;;;;;;17.90;99.90;;;;;;5094403;28;19978;-63
2023/06/06 14:10:02;;;;;;;;;;;18.00;99.90;;;;;;5093037;28;20299;-65
2023/06/06 14:12:28;;;;;;;;;;;18.10;99.90;;;;;;5094288;28;19945;-64
2023/06/06 14:14:53;;;;;;;;;;;18.10;99.90;;;;;;5094307;28;19965;-64